sensor_id;sensor_type;location;lat;lon;timestamp;P1;durP1;ratioP1;P2;durP2;ratioP2
8331;SDS011;4203;48.144;14.118;2024-03-08T00:01:22;62.47;;;27.33;;
8331;SDS011;4203;48.144;14.118;2024-03-08T00:03:50;55.60;;;27.37;;
8331;SDS011;4203;48.144;14.118;2024-03-08T00:06:17;63.43;;;27.57;;
8331;SDS011;4203;48.144;14.118;2024-03-08T00:08:45;66.37;;;28.47;;
8331;SDS011;4203;48.144;14.118;2024-03-08T00:11:13;58.83;;;26.77;;
8331;SDS011;4203;48.144;14.118;2024-03-08T00:13:41;63.57;;;25.93;;
8331;SDS011;4203;48.144;14.118;2024-03-08T00:16:10;64.87;;;27.03;;
8331;SDS011;4203;48.144;14.118;2024-03-08T00:18:37;59.30;;;27.53;;
8331;SDS011;4203;48.144;14.118;2024-03-08T00:21:04;63.30;;;27.67;;
8331;SDS011;4203;48.144;14.118;2024-03-08T00:23:34;63.53;;;28.67;;
8331;SDS011;4203;48.144;14.118;2024-03-08T00:26:01;62.07;;;26.33;;
8331;SDS011;4203;48.144;14.118;2024-03-08T00:28:30;63.17;;;27.13;;
8331;SDS011;4203;48.144;14.118;2024-03-08T00:30:59;54.17;;;26.77;;
8331;SDS011;4203;48.144;14.118;2024-03-08T00:33:26;52.53;;;26.20;;
8331;SDS011;4203;48.144;14.118;2024-03-08T00:35:53;58.93;;;28.97;;
8331;SDS011;4203;48.144;14.118;2024-03-08T00:38:21;68.37;;;29.23;;
8331;SDS011;4203;48.144;14.118;2024-03-08T00:40:47;63.63;;;27.60;;
8331;SDS011;4203;48.144;14.118;2024-03-08T00:43:14;67.70;;;27.97;;
8331;SDS011;4203;48.144;14.118;2024-03-08T00:45:43;59.50;;;27.07;;
8331;SDS011;4203;48.144;14.118;2024-03-08T00:48:10;64.57;;;27.93;;
8331;SDS011;4203;48.144;14.118;2024-03-08T00:50:37;61.90;;;28.17;;
8331;SDS011;4203;48.144;14.118;2024-03-08T00:53:05;60.07;;;27.53;;
8331;SDS011;4203;48.144;14.118;2024-03-08T00:55:32;63.37;;;27.47;;
8331;SDS011;4203;48.144;14.118;2024-03-08T00:58:00;54.30;;;26.07;;
8331;SDS011;4203;48.144;14.118;2024-03-08T01:00:27;60.73;;;26.47;;
8331;SDS011;4203;48.144;14.118;2024-03-08T01:02:56;60.03;;;26.90;;
8331;SDS011;4203;48.144;14.118;2024-03-08T01:05:24;61.90;;;28.10;;
8331;SDS011;4203;48.144;14.118;2024-03-08T01:07:51;62.33;;;28.13;;
8331;SDS011;4203;48.144;14.118;2024-03-08T01:10:18;54.53;;;26.20;;
8331;SDS011;4203;48.144;14.118;2024-03-08T01:12:45;51.20;;;26.07;;
8331;SDS011;4203;48.144;14.118;2024-03-08T01:15:13;54.37;;;26.40;;
8331;SDS011;4203;48.144;14.118;2024-03-08T01:17:40;62.13;;;28.43;;
8331;SDS011;4203;48.144;14.118;2024-03-08T01:20:11;56.37;;;26.23;;
8331;SDS011;4203;48.144;14.118;2024-03-08T01:22:38;60.50;;;26.53;;
8331;SDS011;4203;48.144;14.118;2024-03-08T01:25:06;60.97;;;27.03;;
8331;SDS011;4203;48.144;14.118;2024-03-08T01:27:34;58.30;;;26.83;;
8331;SDS011;4203;48.144;14.118;2024-03-08T01:30:02;56.17;;;27.07;;
8331;SDS011;4203;48.144;14.118;2024-03-08T01:32:29;59.83;;;26.63;;
8331;SDS011;4203;48.144;14.118;2024-03-08T01:34:57;53.80;;;27.63;;
8331;SDS011;4203;48.144;14.118;2024-03-08T01:37:25;55.20;;;27.43;;
8331;SDS011;4203;48.144;14.118;2024-03-08T01:39:54;61.27;;;26.73;;
8331;SDS011;4203;48.144;14.118;2024-03-08T01:42:21;53.63;;;26.77;;
8331;SDS011;4203;48.144;14.118;2024-03-08T01:44:49;58.67;;;26.83;;
8331;SDS011;4203;48.144;14.118;2024-03-08T01:47:16;57.73;;;27.77;;
8331;SDS011;4203;48.144;14.118;2024-03-08T01:49:45;57.63;;;27.53;;
8331;SDS011;4203;48.144;14.118;2024-03-08T01:52:12;64.27;;;29.33;;
8331;SDS011;4203;48.144;14.118;2024-03-08T01:54:41;61.80;;;28.37;;
8331;SDS011;4203;48.144;14.118;2024-03-08T01:57:09;53.80;;;27.17;;
8331;SDS011;4203;48.144;14.118;2024-03-08T01:59:36;62.10;;;27.93;;
8331;SDS011;4203;48.144;14.118;2024-03-08T02:02:04;55.70;;;27.07;;
8331;SDS011;4203;48.144;14.118;2024-03-08T02:04:34;58.00;;;26.23;;
8331;SDS011;4203;48.144;14.118;2024-03-08T02:07:01;55.53;;;27.63;;
8331;SDS011;4203;48.144;14.118;2024-03-08T02:09:30;58.47;;;28.17;;
8331;SDS011;4203;48.144;14.118;2024-03-08T02:11:58;49.93;;;26.00;;
8331;SDS011;4203;48.144;14.118;2024-03-08T02:14:26;60.57;;;27.03;;
8331;SDS011;4203;48.144;14.118;2024-03-08T02:16:54;57.17;;;27.70;;
8331;SDS011;4203;48.144;14.118;2024-03-08T02:19:23;53.57;;;26.50;;
8331;SDS011;4203;48.144;14.118;2024-03-08T02:21:51;51.40;;;25.03;;
8331;SDS011;4203;48.144;14.118;2024-03-08T02:24:19;61.03;;;28.03;;
8331;SDS011;4203;48.144;14.118;2024-03-08T02:26:46;50.40;;;25.77;;
8331;SDS011;4203;48.144;14.118;2024-03-08T02:29:13;56.87;;;27.40;;
8331;SDS011;4203;48.144;14.118;2024-03-08T02:31:41;60.53;;;26.67;;
8331;SDS011;4203;48.144;14.118;2024-03-08T02:34:08;56.97;;;25.67;;
8331;SDS011;4203;48.144;14.118;2024-03-08T02:36:35;57.93;;;26.53;;
8331;SDS011;4203;48.144;14.118;2024-03-08T02:39:04;59.23;;;25.83;;
8331;SDS011;4203;48.144;14.118;2024-03-08T02:41:31;61.93;;;27.93;;
8331;SDS011;4203;48.144;14.118;2024-03-08T02:43:58;56.77;;;26.13;;
8331;SDS011;4203;48.144;14.118;2024-03-08T02:46:26;54.97;;;26.83;;
8331;SDS011;4203;48.144;14.118;2024-03-08T02:48:53;60.37;;;27.93;;
8331;SDS011;4203;48.144;14.118;2024-03-08T02:51:20;53.67;;;25.83;;
8331;SDS011;4203;48.144;14.118;2024-03-08T02:53:47;60.00;;;29.77;;
8331;SDS011;4203;48.144;14.118;2024-03-08T02:56:18;59.77;;;26.97;;
8331;SDS011;4203;48.144;14.118;2024-03-08T02:58:47;58.27;;;28.13;;
8331;SDS011;4203;48.144;14.118;2024-03-08T03:01:14;54.63;;;27.00;;
8331;SDS011;4203;48.144;14.118;2024-03-08T03:03:41;53.77;;;25.90;;
8331;SDS011;4203;48.144;14.118;2024-03-08T03:06:08;57.70;;;28.20;;
8331;SDS011;4203;48.144;14.118;2024-03-08T03:08:37;55.70;;;26.97;;
8331;SDS011;4203;48.144;14.118;2024-03-08T03:11:09;52.53;;;27.53;;
8331;SDS011;4203;48.144;14.118;2024-03-08T03:13:40;58.03;;;27.73;;
8331;SDS011;4203;48.144;14.118;2024-03-08T03:16:07;62.97;;;26.60;;
8331;SDS011;4203;48.144;14.118;2024-03-08T03:18:35;59.30;;;27.87;;
8331;SDS011;4203;48.144;14.118;2024-03-08T03:21:03;59.13;;;26.67;;
8331;SDS011;4203;48.144;14.118;2024-03-08T03:23:32;60.67;;;27.20;;
8331;SDS011;4203;48.144;14.118;2024-03-08T03:26:00;58.40;;;26.30;;
8331;SDS011;4203;48.144;14.118;2024-03-08T03:28:27;52.63;;;26.67;;
8331;SDS011;4203;48.144;14.118;2024-03-08T03:30:56;57.37;;;27.03;;
8331;SDS011;4203;48.144;14.118;2024-03-08T03:33:24;57.80;;;27.53;;
8331;SDS011;4203;48.144;14.118;2024-03-08T03:35:51;54.23;;;26.53;;
8331;SDS011;4203;48.144;14.118;2024-03-08T03:38:18;52.50;;;26.43;;
8331;SDS011;4203;48.144;14.118;2024-03-08T03:40:48;58.30;;;26.73;;
8331;SDS011;4203;48.144;14.118;2024-03-08T03:43:17;55.80;;;26.83;;
8331;SDS011;4203;48.144;14.118;2024-03-08T03:45:44;52.73;;;26.37;;
8331;SDS011;4203;48.144;14.118;2024-03-08T03:48:13;54.43;;;26.80;;
8331;SDS011;4203;48.144;14.118;2024-03-08T03:50:40;48.60;;;24.73;;
8331;SDS011;4203;48.144;14.118;2024-03-08T03:53:08;52.73;;;25.30;;
8331;SDS011;4203;48.144;14.118;2024-03-08T03:55:35;57.13;;;26.47;;
8331;SDS011;4203;48.144;14.118;2024-03-08T03:58:03;54.93;;;26.37;;
8331;SDS011;4203;48.144;14.118;2024-03-08T04:00:31;53.67;;;26.03;;
8331;SDS011;4203;48.144;14.118;2024-03-08T04:02:58;52.33;;;25.70;;
8331;SDS011;4203;48.144;14.118;2024-03-08T04:05:27;49.50;;;25.80;;
8331;SDS011;4203;48.144;14.118;2024-03-08T04:07:54;52.93;;;26.87;;
8331;SDS011;4203;48.144;14.118;2024-03-08T04:10:22;60.13;;;27.07;;
8331;SDS011;4203;48.144;14.118;2024-03-08T04:12:49;56.60;;;25.10;;
8331;SDS011;4203;48.144;14.118;2024-03-08T04:15:16;56.63;;;25.80;;
8331;SDS011;4203;48.144;14.118;2024-03-08T04:17:43;55.83;;;24.70;;
8331;SDS011;4203;48.144;14.118;2024-03-08T04:20:11;58.87;;;26.87;;
8331;SDS011;4203;48.144;14.118;2024-03-08T04:22:41;59.30;;;26.43;;
8331;SDS011;4203;48.144;14.118;2024-03-08T04:25:09;52.07;;;26.80;;
8331;SDS011;4203;48.144;14.118;2024-03-08T04:27:36;55.37;;;26.60;;
8331;SDS011;4203;48.144;14.118;2024-03-08T04:30:06;56.47;;;27.77;;
8331;SDS011;4203;48.144;14.118;2024-03-08T04:32:34;55.87;;;26.27;;
8331;SDS011;4203;48.144;14.118;2024-03-08T04:35:01;56.27;;;26.20;;
8331;SDS011;4203;48.144;14.118;2024-03-08T04:37:28;56.73;;;26.20;;
8331;SDS011;4203;48.144;14.118;2024-03-08T04:39:57;54.70;;;27.10;;
8331;SDS011;4203;48.144;14.118;2024-03-08T04:42:25;55.80;;;26.20;;
8331;SDS011;4203;48.144;14.118;2024-03-08T04:44:53;55.43;;;26.07;;
8331;SDS011;4203;48.144;14.118;2024-03-08T04:47:21;51.43;;;24.73;;
8331;SDS011;4203;48.144;14.118;2024-03-08T04:49:48;55.20;;;26.33;;
8331;SDS011;4203;48.144;14.118;2024-03-08T04:52:15;53.07;;;25.43;;
8331;SDS011;4203;48.144;14.118;2024-03-08T04:54:43;58.60;;;27.37;;
8331;SDS011;4203;48.144;14.118;2024-03-08T04:57:12;58.53;;;26.70;;
8331;SDS011;4203;48.144;14.118;2024-03-08T04:59:39;52.50;;;25.90;;
8331;SDS011;4203;48.144;14.118;2024-03-08T05:02:06;53.77;;;27.10;;
8331;SDS011;4203;48.144;14.118;2024-03-08T05:04:33;52.17;;;25.33;;
8331;SDS011;4203;48.144;14.118;2024-03-08T05:07:01;56.80;;;26.10;;
8331;SDS011;4203;48.144;14.118;2024-03-08T05:09:29;61.87;;;28.20;;
8331;SDS011;4203;48.144;14.118;2024-03-08T05:11:56;54.60;;;26.20;;
8331;SDS011;4203;48.144;14.118;2024-03-08T05:14:26;63.67;;;27.27;;
8331;SDS011;4203;48.144;14.118;2024-03-08T05:16:53;62.33;;;28.17;;
8331;SDS011;4203;48.144;14.118;2024-03-08T05:19:20;57.13;;;28.10;;
8331;SDS011;4203;48.144;14.118;2024-03-08T05:21:48;57.70;;;28.40;;
8331;SDS011;4203;48.144;14.118;2024-03-08T05:24:16;62.73;;;29.33;;
8331;SDS011;4203;48.144;14.118;2024-03-08T05:26:44;59.97;;;27.43;;
8331;SDS011;4203;48.144;14.118;2024-03-08T05:29:12;58.10;;;27.83;;
8331;SDS011;4203;48.144;14.118;2024-03-08T05:31:45;61.43;;;27.23;;
8331;SDS011;4203;48.144;14.118;2024-03-08T05:34:14;58.40;;;27.23;;
8331;SDS011;4203;48.144;14.118;2024-03-08T05:36:41;59.90;;;27.97;;
8331;SDS011;4203;48.144;14.118;2024-03-08T05:39:10;53.23;;;26.50;;
8331;SDS011;4203;48.144;14.118;2024-03-08T05:41:37;59.30;;;29.17;;
8331;SDS011;4203;48.144;14.118;2024-03-08T05:44:05;63.10;;;27.20;;
8331;SDS011;4203;48.144;14.118;2024-03-08T05:46:32;62.80;;;28.87;;
8331;SDS011;4203;48.144;14.118;2024-03-08T05:49:01;56.90;;;26.67;;
8331;SDS011;4203;48.144;14.118;2024-03-08T05:51:30;54.27;;;25.87;;
8331;SDS011;4203;48.144;14.118;2024-03-08T05:53:59;56.77;;;27.17;;
8331;SDS011;4203;48.144;14.118;2024-03-08T05:56:28;60.50;;;29.53;;
8331;SDS011;4203;48.144;14.118;2024-03-08T05:58:57;62.30;;;29.20;;
8331;SDS011;4203;48.144;14.118;2024-03-08T06:01:25;55.13;;;26.93;;
8331;SDS011;4203;48.144;14.118;2024-03-08T06:03:52;61.33;;;27.67;;
8331;SDS011;4203;48.144;14.118;2024-03-08T06:06:22;61.63;;;28.23;;
8331;SDS011;4203;48.144;14.118;2024-03-08T06:08:50;59.07;;;26.77;;
8331;SDS011;4203;48.144;14.118;2024-03-08T06:11:18;56.10;;;26.80;;
8331;SDS011;4203;48.144;14.118;2024-03-08T06:13:46;63.53;;;30.27;;
8331;SDS011;4203;48.144;14.118;2024-03-08T06:16:14;57.70;;;28.17;;
8331;SDS011;4203;48.144;14.118;2024-03-08T06:18:41;67.30;;;29.63;;
8331;SDS011;4203;48.144;14.118;2024-03-08T06:21:09;53.17;;;27.20;;
8331;SDS011;4203;48.144;14.118;2024-03-08T06:23:38;59.27;;;27.80;;
8331;SDS011;4203;48.144;14.118;2024-03-08T06:26:06;52.33;;;26.63;;
8331;SDS011;4203;48.144;14.118;2024-03-08T06:28:33;60.63;;;28.03;;
8331;SDS011;4203;48.144;14.118;2024-03-08T06:31:01;56.87;;;26.63;;
8331;SDS011;4203;48.144;14.118;2024-03-08T06:33:28;55.00;;;28.67;;
8331;SDS011;4203;48.144;14.118;2024-03-08T06:35:57;56.13;;;24.90;;
8331;SDS011;4203;48.144;14.118;2024-03-08T06:38:24;51.90;;;25.37;;
8331;SDS011;4203;48.144;14.118;2024-03-08T06:40:53;57.80;;;26.93;;
8331;SDS011;4203;48.144;14.118;2024-03-08T06:43:21;59.23;;;28.20;;
8331;SDS011;4203;48.144;14.118;2024-03-08T06:45:50;53.97;;;27.47;;
8331;SDS011;4203;48.144;14.118;2024-03-08T06:48:17;51.40;;;25.90;;
8331;SDS011;4203;48.144;14.118;2024-03-08T06:50:45;56.50;;;26.13;;
8331;SDS011;4203;48.144;14.118;2024-03-08T06:53:13;54.50;;;26.93;;
8331;SDS011;4203;48.144;14.118;2024-03-08T06:55:44;51.57;;;27.30;;
8331;SDS011;4203;48.144;14.118;2024-03-08T06:58:13;53.60;;;27.03;;
8331;SDS011;4203;48.144;14.118;2024-03-08T07:00:42;49.37;;;26.70;;
8331;SDS011;4203;48.144;14.118;2024-03-08T07:03:09;56.80;;;27.77;;
8331;SDS011;4203;48.144;14.118;2024-03-08T07:05:37;55.70;;;26.07;;
8331;SDS011;4203;48.144;14.118;2024-03-08T07:08:05;49.17;;;25.80;;
8331;SDS011;4203;48.144;14.118;2024-03-08T07:10:33;46.90;;;26.03;;
8331;SDS011;4203;48.144;14.118;2024-03-08T07:13:02;56.57;;;26.93;;
8331;SDS011;4203;48.144;14.118;2024-03-08T07:15:30;52.77;;;27.33;;
8331;SDS011;4203;48.144;14.118;2024-03-08T07:17:58;53.93;;;25.63;;
8331;SDS011;4203;48.144;14.118;2024-03-08T07:20:26;53.53;;;27.27;;
8331;SDS011;4203;48.144;14.118;2024-03-08T07:22:53;51.77;;;25.80;;
8331;SDS011;4203;48.144;14.118;2024-03-08T07:25:21;50.03;;;26.63;;
8331;SDS011;4203;48.144;14.118;2024-03-08T07:27:49;53.33;;;26.90;;
8331;SDS011;4203;48.144;14.118;2024-03-08T07:33:17;54.27;;;25.97;;
8331;SDS011;4203;48.144;14.118;2024-03-08T07:38:39;49.77;;;26.00;;
8331;SDS011;4203;48.144;14.118;2024-03-08T07:41:21;53.17;;;27.37;;
8331;SDS011;4203;48.144;14.118;2024-03-08T07:44:03;46.80;;;24.90;;
8331;SDS011;4203;48.144;14.118;2024-03-08T07:46:56;51.03;;;26.03;;
8331;SDS011;4203;48.144;14.118;2024-03-08T13:08:07;15.00;;;10.85;;
8331;SDS011;4203;48.144;14.118;2024-03-08T13:11:28;15.65;;;11.63;;
8331;SDS011;4203;48.144;14.118;2024-03-08T13:15:09;15.57;;;10.07;;
8331;SDS011;4203;48.144;14.118;2024-03-08T14:47:00;11.80;;;8.80;;
8331;SDS011;4203;48.144;14.118;2024-03-08T14:53:21;11.68;;;8.02;;
8331;SDS011;4203;48.144;14.118;2024-03-08T19:14:00;13.73;;;9.03;;
8331;SDS011;4203;48.144;14.118;2024-03-08T19:16:42;13.23;;;9.10;;
8331;SDS011;4203;48.144;14.118;2024-03-08T19:25:20;13.30;;;8.43;;
8331;SDS011;4203;48.144;14.118;2024-03-08T19:27:53;11.93;;;8.30;;
8331;SDS011;4203;48.144;14.118;2024-03-08T19:46:44;12.43;;;8.87;;
8331;SDS011;4203;48.144;14.118;2024-03-08T19:55:28;11.73;;;7.63;;
8331;SDS011;4203;48.144;14.118;2024-03-08T20:15:30;13.60;;;8.27;;
8331;SDS011;4203;48.144;14.118;2024-03-08T20:20:46;13.37;;;7.93;;
8331;SDS011;4203;48.144;14.118;2024-03-08T21:02:47;9.70;;;7.20;;
8331;SDS011;4203;48.144;14.118;2024-03-08T21:05:27;10.87;;;7.37;;
8331;SDS011;4203;48.144;14.118;2024-03-08T21:08:25;9.63;;;7.00;;
8331;SDS011;4203;48.144;14.118;2024-03-08T21:21:56;10.57;;;7.33;;
8331;SDS011;4203;48.144;14.118;2024-03-08T21:24:45;13.67;;;7.63;;
8331;SDS011;4203;48.144;14.118;2024-03-08T21:34:07;11.70;;;7.57;;
8331;SDS011;4203;48.144;14.118;2024-03-08T22:05:28;10.03;;;7.63;;
8331;SDS011;4203;48.144;14.118;2024-03-08T22:08:25;11.57;;;7.77;;
8331;SDS011;4203;48.144;14.118;2024-03-08T22:10:59;13.37;;;8.20;;
8331;SDS011;4203;48.144;14.118;2024-03-08T22:13:56;11.10;;;7.43;;
8331;SDS011;4203;48.144;14.118;2024-03-08T22:16:57;10.47;;;7.13;;
8331;SDS011;4203;48.144;14.118;2024-03-08T22:30:01;10.47;;;6.80;;
8331;SDS011;4203;48.144;14.118;2024-03-08T22:33:23;9.53;;;7.37;;
8331;SDS011;4203;48.144;14.118;2024-03-08T22:36:42;10.53;;;7.60;;
8331;SDS011;4203;48.144;14.118;2024-03-08T22:56:49;11.07;;;7.40;;
8331;SDS011;4203;48.144;14.118;2024-03-08T23:06:00;13.50;;;8.87;;
8331;SDS011;4203;48.144;14.118;2024-03-08T23:26:36;11.73;;;8.10;;
8331;SDS011;4203;48.144;14.118;2024-03-08T23:30:01;11.53;;;7.80;;
8331;SDS011;4203;48.144;14.118;2024-03-08T23:56:32;13.00;;;7.90;;
